sensor_id;sensor_type;location;lat;lon;timestamp;pressure;altitude;pressure_sealevel;temperature;humidity
44457;BME280;30159;49.316;8.558;2023-04-25T00:01:28;99810.38;;;10.43;100.00
44457;BME280;30159;49.316;8.558;2023-04-25T00:03:55;99802.00;;;10.44;100.00
44457;BME280;30159;49.316;8.558;2023-04-25T00:06:23;99808.69;;;10.47;100.00
44457;BME280;30159;49.316;8.558;2023-04-25T00:08:51;99812.97;;;10.48;100.00
44457;BME280;30159;49.316;8.558;2023-04-25T00:11:18;99814.78;;;10.52;100.00
44457;BME280;30159;49.316;8.558;2023-04-25T00:13:45;99812.00;;;10.58;100.00
44457;BME280;30159;49.316;8.558;2023-04-25T00:16:11;99819.44;;;10.66;100.00
44457;BME280;30159;49.316;8.558;2023-04-25T00:18:39;99791.69;;;10.46;100.00
44457;BME280;30159;49.316;8.558;2023-04-25T00:21:06;99812.81;;;10.58;100.00
44457;BME280;30159;49.316;8.558;2023-04-25T00:23:34;99652.19;;;9.48;100.00
44457;BME280;30159;49.316;8.558;2023-04-25T00:26:02;99813.78;;;10.48;100.00
44457;BME280;30159;49.316;8.558;2023-04-25T00:28:28;99812.97;;;10.48;100.00
44457;BME280;30159;49.316;8.558;2023-04-25T00:30:55;99806.00;;;10.47;100.00
44457;BME280;30159;49.316;8.558;2023-04-25T00:33:21;99802.88;;;10.40;100.00
44457;BME280;30159;49.316;8.558;2023-04-25T00:35:48;99803.94;;;10.39;100.00
44457;BME280;30159;49.316;8.558;2023-04-25T00:38:14;99804.75;;;10.39;100.00
44457;BME280;30159;49.316;8.558;2023-04-25T00:40:43;99801.47;;;10.42;100.00
44457;BME280;30159;49.316;8.558;2023-04-25T00:43:09;99803.75;;;10.35;100.00
44457;BME280;30159;49.316;8.558;2023-04-25T00:45:38;99803.16;;;10.38;100.00
44457;BME280;30159;49.316;8.558;2023-04-25T00:48:05;99754.31;;;10.02;100.00
44457;BME280;30159;49.316;8.558;2023-04-25T00:50:33;99807.22;;;10.36;100.00
44457;BME280;30159;49.316;8.558;2023-04-25T00:53:00;99794.38;;;10.27;100.00
44457;BME280;30159;49.316;8.558;2023-04-25T00:55:27;99793.84;;;10.30;100.00
44457;BME280;30159;49.316;8.558;2023-04-25T00:57:55;99782.22;;;10.30;100.00
44457;BME280;30159;49.316;8.558;2023-04-25T01:00:21;99794.16;;;10.24;100.00
44457;BME280;30159;49.316;8.558;2023-04-25T01:02:48;99787.75;;;10.20;100.00
44457;BME280;30159;49.316;8.558;2023-04-25T01:05:15;99730.00;;;9.88;100.00
44457;BME280;30159;49.316;8.558;2023-04-25T01:07:44;99784.38;;;10.28;100.00
44457;BME280;30159;49.316;8.558;2023-04-25T01:10:11;99626.13;;;9.25;100.00
44457;BME280;30159;49.316;8.558;2023-04-25T01:12:37;99777.25;;;10.18;100.00
44457;BME280;30159;49.316;8.558;2023-04-25T01:15:06;99778.66;;;10.16;100.00
44457;BME280;30159;49.316;8.558;2023-04-25T01:17:33;99767.78;;;10.02;100.00
44457;BME280;30159;49.316;8.558;2023-04-25T01:20:03;99783.59;;;10.08;100.00
44457;BME280;30159;49.316;8.558;2023-04-25T01:22:31;99783.38;;;10.05;100.00
44457;BME280;30159;49.316;8.558;2023-04-25T01:24:58;99785.06;;;10.01;100.00
44457;BME280;30159;49.316;8.558;2023-04-25T01:27:25;99770.56;;;9.97;100.00
44457;BME280;30159;49.316;8.558;2023-04-25T01:29:53;99774.34;;;9.96;100.00
44457;BME280;30159;49.316;8.558;2023-04-25T01:32:21;99774.00;;;10.02;100.00
44457;BME280;30159;49.316;8.558;2023-04-25T01:34:48;99772.66;;;10.00;100.00
44457;BME280;30159;49.316;8.558;2023-04-25T01:37:16;99776.97;;;10.01;100.00
44457;BME280;30159;49.316;8.558;2023-04-25T01:39:44;99780.75;;;10.00;100.00
44457;BME280;30159;49.316;8.558;2023-04-25T01:42:11;99780.75;;;10.00;100.00
44457;BME280;30159;49.316;8.558;2023-04-25T01:44:38;99780.97;;;10.03;100.00
44457;BME280;30159;49.316;8.558;2023-04-25T01:47:05;99777.41;;;10.08;100.00
44457;BME280;30159;49.316;8.558;2023-04-25T01:49:31;99775.22;;;10.10;100.00
44457;BME280;30159;49.316;8.558;2023-04-25T01:51:58;99789.22;;;10.12;100.00
44457;BME280;30159;49.316;8.558;2023-04-25T01:54:25;99761.59;;;10.01;100.00
44457;BME280;30159;49.316;8.558;2023-04-25T01:56:53;99774.28;;;10.20;100.00
44457;BME280;30159;49.316;8.558;2023-04-25T01:59:19;99774.00;;;10.21;100.00
44457;BME280;30159;49.316;8.558;2023-04-25T02:01:47;99776.97;;;10.20;100.00
44457;BME280;30159;49.316;8.558;2023-04-25T02:04:13;99781.69;;;10.09;100.00
44457;BME280;30159;49.316;8.558;2023-04-25T02:06:40;99769.31;;;10.08;100.00
44457;BME280;30159;49.316;8.558;2023-04-25T02:09:06;99773.69;;;10.04;100.00
44457;BME280;30159;49.316;8.558;2023-04-25T02:11:33;99776.19;;;10.00;100.00
44457;BME280;30159;49.316;8.558;2023-04-25T02:14:01;99775.34;;;10.00;100.00
44457;BME280;30159;49.316;8.558;2023-04-25T02:16:27;99782.72;;;9.94;100.00
44457;BME280;30159;49.316;8.558;2023-04-25T02:18:55;99784.38;;;9.90;100.00
44457;BME280;30159;49.316;8.558;2023-04-25T02:21:22;99771.06;;;9.80;100.00
44457;BME280;30159;49.316;8.558;2023-04-25T02:23:48;99779.16;;;9.80;100.00
44457;BME280;30159;49.316;8.558;2023-04-25T02:26:17;99776.44;;;9.80;100.00
44457;BME280;30159;49.316;8.558;2023-04-25T02:28:43;99783.44;;;9.81;100.00
44457;BME280;30159;49.316;8.558;2023-04-25T02:31:11;99779.94;;;9.80;100.00
44457;BME280;30159;49.316;8.558;2023-04-25T02:33:38;99777.25;;;9.80;100.00
44457;BME280;30159;49.316;8.558;2023-04-25T02:36:05;99778.91;;;9.76;100.00
44457;BME280;30159;49.316;8.558;2023-04-25T02:38:31;99781.94;;;9.69;100.00
44457;BME280;30159;49.316;8.558;2023-04-25T02:40:58;99782.09;;;9.59;100.00
44457;BME280;30159;49.316;8.558;2023-04-25T02:43:25;99774.41;;;9.47;100.00
44457;BME280;30159;49.316;8.558;2023-04-25T02:45:51;99777.09;;;9.47;100.00
44457;BME280;30159;49.316;8.558;2023-04-25T02:48:19;99776.38;;;9.42;100.00
44457;BME280;30159;49.316;8.558;2023-04-25T02:50:45;99778.56;;;9.40;100.00
44457;BME280;30159;49.316;8.558;2023-04-25T02:53:12;99773.16;;;9.40;100.00
44457;BME280;30159;49.316;8.558;2023-04-25T02:55:38;99780.41;;;9.39;100.00
44457;BME280;30159;49.316;8.558;2023-04-25T02:58:05;99785.31;;;9.37;100.00
44457;BME280;30159;49.316;8.558;2023-04-25T03:00:32;99782.91;;;9.36;100.00
44457;BME280;30159;49.316;8.558;2023-04-25T03:02:59;99777.56;;;9.31;100.00
44457;BME280;30159;49.316;8.558;2023-04-25T03:05:26;99784.03;;;9.29;100.00
44457;BME280;30159;49.316;8.558;2023-04-25T03:07:53;99771.22;;;9.21;100.00
44457;BME280;30159;49.316;8.558;2023-04-25T03:10:19;99779.41;;;9.35;100.00
44457;BME280;30159;49.316;8.558;2023-04-25T03:12:46;99765.50;;;9.28;100.00
44457;BME280;30159;49.316;8.558;2023-04-25T03:15:12;99779.09;;;9.37;100.00
44457;BME280;30159;49.316;8.558;2023-04-25T03:17:39;99778.63;;;9.35;100.00
44457;BME280;30159;49.316;8.558;2023-04-25T03:20:07;99771.34;;;9.35;100.00
44457;BME280;30159;49.316;8.558;2023-04-25T03:22:35;99775.91;;;9.35;100.00
44457;BME280;30159;49.316;8.558;2023-04-25T03:25:02;99768.06;;;9.38;100.00
44457;BME280;30159;49.316;8.558;2023-04-25T03:27:29;99764.00;;;9.41;100.00
44457;BME280;30159;49.316;8.558;2023-04-25T03:29:55;99776.38;;;9.42;100.00
44457;BME280;30159;49.316;8.558;2023-04-25T03:32:22;99773.91;;;9.45;100.00
44457;BME280;30159;49.316;8.558;2023-04-25T03:34:48;99744.69;;;9.34;100.00
44457;BME280;30159;49.316;8.558;2023-04-25T03:37:15;99770.63;;;9.48;100.00
44457;BME280;30159;49.316;8.558;2023-04-25T03:39:43;99767.66;;;9.50;100.00
44457;BME280;30159;49.316;8.558;2023-04-25T03:42:09;99777.03;;;9.53;100.00
44457;BME280;30159;49.316;8.558;2023-04-25T03:44:36;99767.81;;;9.59;100.00
44457;BME280;30159;49.316;8.558;2023-04-25T03:47:02;99769.13;;;9.61;100.00
44457;BME280;30159;49.316;8.558;2023-04-25T03:49:29;99768.34;;;9.61;100.00
44457;BME280;30159;49.316;8.558;2023-04-25T03:51:55;99771.81;;;9.61;100.00
44457;BME280;30159;49.316;8.558;2023-04-25T03:54:22;99772.09;;;9.60;100.00
44457;BME280;30159;49.316;8.558;2023-04-25T03:56:50;99771.75;;;9.66;100.00
44457;BME280;30159;49.316;8.558;2023-04-25T03:59:16;99766.31;;;9.71;100.00
44457;BME280;30159;49.316;8.558;2023-04-25T04:01:43;99773.25;;;9.78;100.00
44457;BME280;30159;49.316;8.558;2023-04-25T04:04:09;99765.50;;;9.71;100.00
44457;BME280;30159;49.316;8.558;2023-04-25T04:06:36;99770.31;;;9.74;100.00
44457;BME280;30159;49.316;8.558;2023-04-25T04:09:03;99773.81;;;9.75;100.00
44457;BME280;30159;49.316;8.558;2023-04-25T04:11:29;99776.28;;;9.71;100.00
44457;BME280;30159;49.316;8.558;2023-04-25T04:13:58;99770.16;;;9.65;100.00
44457;BME280;30159;49.316;8.558;2023-04-25T04:16:25;99758.25;;;9.47;100.00
44457;BME280;30159;49.316;8.558;2023-04-25T04:18:52;99768.97;;;9.53;100.00
44457;BME280;30159;49.316;8.558;2023-04-25T04:21:18;99766.91;;;9.44;100.00
44457;BME280;30159;49.316;8.558;2023-04-25T04:23:45;99787.81;;;9.53;100.00
44457;BME280;30159;49.316;8.558;2023-04-25T04:26:13;99787.75;;;9.58;100.00
44457;BME280;30159;49.316;8.558;2023-04-25T04:28:40;99790.97;;;9.60;100.00
44457;BME280;30159;49.316;8.558;2023-04-25T04:31:08;99780.50;;;9.58;100.00
44457;BME280;30159;49.316;8.558;2023-04-25T04:33:35;99786.31;;;9.65;100.00
44457;BME280;30159;49.316;8.558;2023-04-25T04:36:02;99775.91;;;9.59;100.00
44457;BME280;30159;49.316;8.558;2023-04-25T04:38:28;99790.88;;;9.65;100.00
44457;BME280;30159;49.316;8.558;2023-04-25T04:40:55;99787.19;;;9.61;100.00
44457;BME280;30159;49.316;8.558;2023-04-25T04:43:22;99785.50;;;9.65;100.00
44457;BME280;30159;49.316;8.558;2023-04-25T04:45:49;99777.94;;;9.67;100.00
44457;BME280;30159;49.316;8.558;2023-04-25T04:48:17;99786.84;;;9.67;100.00
44457;BME280;30159;49.316;8.558;2023-04-25T04:50:44;99787.75;;;9.58;100.00
44457;BME280;30159;49.316;8.558;2023-04-25T04:53:11;99797.09;;;9.65;100.00
44457;BME280;30159;49.316;8.558;2023-04-25T04:55:38;99753.81;;;9.38;100.00
44457;BME280;30159;49.316;8.558;2023-04-25T04:58:06;99803.66;;;9.78;100.00
44457;BME280;30159;49.316;8.558;2023-04-25T05:00:32;99814.38;;;9.83;100.00
44457;BME280;30159;49.316;8.558;2023-04-25T05:02:59;99813.72;;;9.91;100.00
44457;BME280;30159;49.316;8.558;2023-04-25T05:05:27;99808.28;;;9.97;100.00
44457;BME280;30159;49.316;8.558;2023-04-25T05:07:54;99803.63;;;10.02;100.00
44457;BME280;30159;49.316;8.558;2023-04-25T05:10:20;99806.19;;;10.12;100.00
44457;BME280;30159;49.316;8.558;2023-04-25T05:12:47;99794.28;;;9.95;100.00
44457;BME280;30159;49.316;8.558;2023-04-25T05:15:13;99792.59;;;9.80;100.00
44457;BME280;30159;49.316;8.558;2023-04-25T05:17:40;99786.88;;;9.62;100.00
44457;BME280;30159;49.316;8.558;2023-04-25T05:20:07;99793.09;;;9.63;100.00
44457;BME280;30159;49.316;8.558;2023-04-25T05:22:35;99798.84;;;9.75;100.00
44457;BME280;30159;49.316;8.558;2023-04-25T05:25:02;99802.28;;;10.00;100.00
44457;BME280;30159;49.316;8.558;2023-04-25T05:27:29;99798.31;;;10.16;100.00
44457;BME280;30159;49.316;8.558;2023-04-25T05:29:55;99794.44;;;10.22;100.00
44457;BME280;30159;49.316;8.558;2023-04-25T05:32:22;99794.91;;;10.29;100.00
44457;BME280;30159;49.316;8.558;2023-04-25T05:34:50;99799.56;;;10.43;100.00
44457;BME280;30159;49.316;8.558;2023-04-25T05:37:16;99795.69;;;10.68;100.00
44457;BME280;30159;49.316;8.558;2023-04-25T05:39:44;99778.53;;;10.78;100.00
44457;BME280;30159;49.316;8.558;2023-04-25T05:42:11;99803.63;;;10.59;100.00
44457;BME280;30159;49.316;8.558;2023-04-25T05:44:38;99809.97;;;10.68;100.00
44457;BME280;30159;49.316;8.558;2023-04-25T05:47:04;99811.31;;;10.52;100.00
44457;BME280;30159;49.316;8.558;2023-04-25T05:49:31;99816.19;;;10.31;100.00
44457;BME280;30159;49.316;8.558;2023-04-25T05:51:57;99814.09;;;10.04;100.00
44457;BME280;30159;49.316;8.558;2023-04-25T05:54:24;99814.44;;;9.78;100.00
44457;BME280;30159;49.316;8.558;2023-04-25T05:56:52;99813.53;;;9.64;100.00
44457;BME280;30159;49.316;8.558;2023-04-25T05:59:18;99722.72;;;9.02;100.00
44457;BME280;30159;49.316;8.558;2023-04-25T06:01:45;99811.22;;;9.76;100.00
44457;BME280;30159;49.316;8.558;2023-04-25T06:04:11;99827.44;;;9.71;100.00
44457;BME280;30159;49.316;8.558;2023-04-25T06:06:38;99826.72;;;9.65;100.00
44457;BME280;30159;49.316;8.558;2023-04-25T06:09:04;99825.94;;;9.60;100.00
44457;BME280;30159;49.316;8.558;2023-04-25T06:11:31;99839.25;;;9.75;100.00
44457;BME280;30159;49.316;8.558;2023-04-25T06:13:59;99835.81;;;9.94;100.00
44457;BME280;30159;49.316;8.558;2023-04-25T06:16:25;99828.16;;;10.01;100.00
44457;BME280;30159;49.316;8.558;2023-04-25T06:18:52;99843.66;;;10.09;100.00
44457;BME280;30159;49.316;8.558;2023-04-25T06:21:18;99844.41;;;9.96;100.00
44457;BME280;30159;49.316;8.558;2023-04-25T06:23:45;99835.34;;;9.86;100.00
44457;BME280;30159;49.316;8.558;2023-04-25T06:26:11;99836.84;;;9.74;100.00
44457;BME280;30159;49.316;8.558;2023-04-25T06:28:38;99847.06;;;9.77;100.00
44457;BME280;30159;49.316;8.558;2023-04-25T06:31:06;99834.22;;;9.68;100.00
44457;BME280;30159;49.316;8.558;2023-04-25T06:33:32;99858.25;;;9.60;100.00
44457;BME280;30159;49.316;8.558;2023-04-25T06:35:59;99835.66;;;9.61;100.00
44457;BME280;30159;49.316;8.558;2023-04-25T06:38:25;99821.22;;;9.52;100.00
44457;BME280;30159;49.316;8.558;2023-04-25T06:40:52;99836.22;;;9.58;100.00
44457;BME280;30159;49.316;8.558;2023-04-25T06:43:18;99842.88;;;9.65;100.00
44457;BME280;30159;49.316;8.558;2023-04-25T06:45:45;99846.56;;;9.69;100.00
44457;BME280;30159;49.316;8.558;2023-04-25T06:48:13;99845.78;;;9.69;100.00
44457;BME280;30159;49.316;8.558;2023-04-25T06:50:40;99846.34;;;9.66;100.00
44457;BME280;30159;49.316;8.558;2023-04-25T06:53:07;99815.19;;;9.60;100.00
44457;BME280;30159;49.316;8.558;2023-04-25T06:55:34;99855.75;;;10.11;100.00
44457;BME280;30159;49.316;8.558;2023-04-25T06:58:00;99852.25;;;10.35;100.00
44457;BME280;30159;49.316;8.558;2023-04-25T07:00:27;99852.06;;;10.26;100.00
44457;BME280;30159;49.316;8.558;2023-04-25T07:02:53;99849.03;;;10.14;100.00
44457;BME280;30159;49.316;8.558;2023-04-25T07:05:21;99841.03;;;10.04;100.00
44457;BME280;30159;49.316;8.558;2023-04-25T07:07:47;99847.31;;;10.18;100.00
44457;BME280;30159;49.316;8.558;2023-04-25T07:10:14;99850.47;;;10.25;100.00
44457;BME280;30159;49.316;8.558;2023-04-25T07:12:41;99849.56;;;10.11;100.00
44457;BME280;30159;49.316;8.558;2023-04-25T07:15:08;99850.84;;;9.95;100.00
44457;BME280;30159;49.316;8.558;2023-04-25T07:17:35;99855.34;;;9.80;100.00
44457;BME280;30159;49.316;8.558;2023-04-25T07:20:02;99857.25;;;9.80;100.00
44457;BME280;30159;49.316;8.558;2023-04-25T07:22:32;99864.06;;;9.72;100.00
44457;BME280;30159;49.316;8.558;2023-04-25T07:24:58;99863.44;;;9.56;100.00
44457;BME280;30159;49.316;8.558;2023-04-25T07:27:25;99868.97;;;9.41;100.00
44457;BME280;30159;49.316;8.558;2023-04-25T07:29:51;99869.03;;;9.36;100.00
44457;BME280;30159;49.316;8.558;2023-04-25T07:32:18;99867.03;;;9.17;100.00
44457;BME280;30159;49.316;8.558;2023-04-25T07:34:45;99869.53;;;9.08;100.00
44457;BME280;30159;49.316;8.558;2023-04-25T07:37:11;99866.28;;;9.12;100.00
44457;BME280;30159;49.316;8.558;2023-04-25T07:39:40;99869.59;;;9.33;100.00
44457;BME280;30159;49.316;8.558;2023-04-25T07:42:07;99877.84;;;9.41;100.00
44457;BME280;30159;49.316;8.558;2023-04-25T07:44:33;99869.94;;;9.50;100.00
44457;BME280;30159;49.316;8.558;2023-04-25T07:47:04;99887.16;;;9.54;100.00
44457;BME280;30159;49.316;8.558;2023-04-25T07:49:32;99890.69;;;9.49;100.00
44457;BME280;30159;49.316;8.558;2023-04-25T07:51:58;99900.94;;;9.71;100.00
44457;BME280;30159;49.316;8.558;2023-04-25T07:54:25;99888.19;;;9.58;100.00
44457;BME280;30159;49.316;8.558;2023-04-25T07:56:53;99902.72;;;9.81;100.00
44457;BME280;30159;49.316;8.558;2023-04-25T07:59:20;99903.88;;;9.99;100.00
44457;BME280;30159;49.316;8.558;2023-04-25T08:01:46;99879.06;;;9.78;100.00
44457;BME280;30159;49.316;8.558;2023-04-25T08:04:13;99892.81;;;10.01;100.00
44457;BME280;30159;49.316;8.558;2023-04-25T08:06:40;99852.53;;;9.42;100.00
44457;BME280;30159;49.316;8.558;2023-04-25T08:09:06;99875.34;;;9.74;100.00
44457;BME280;30159;49.316;8.558;2023-04-25T08:11:34;99908.13;;;10.05;100.00
44457;BME280;30159;49.316;8.558;2023-04-25T08:14:02;99909.34;;;9.94;100.00
44457;BME280;30159;49.316;8.558;2023-04-25T08:16:28;99920.50;;;9.82;100.00
44457;BME280;30159;49.316;8.558;2023-04-25T08:18:55;99932.31;;;10.10;100.00
44457;BME280;30159;49.316;8.558;2023-04-25T08:21:21;99932.03;;;10.12;100.00
44457;BME280;30159;49.316;8.558;2023-04-25T08:23:48;99936.66;;;10.06;100.00
44457;BME280;30159;49.316;8.558;2023-04-25T08:26:14;99948.03;;;10.03;100.00
44457;BME280;30159;49.316;8.558;2023-04-25T08:28:41;99947.97;;;10.32;100.00
44457;BME280;30159;49.316;8.558;2023-04-25T08:31:08;99950.66;;;10.57;100.00
44457;BME280;30159;49.316;8.558;2023-04-25T08:33:35;99949.00;;;10.80;100.00
44457;BME280;30159;49.316;8.558;2023-04-25T08:36:02;99948.75;;;10.76;100.00
44457;BME280;30159;49.316;8.558;2023-04-25T08:38:28;99958.16;;;10.97;100.00
44457;BME280;30159;49.316;8.558;2023-04-25T08:40:56;99943.31;;;11.33;100.00
44457;BME280;30159;49.316;8.558;2023-04-25T08:43:26;99926.59;;;11.31;98.11
44457;BME280;30159;49.316;8.558;2023-04-25T08:45:57;99968.59;;;11.37;95.60
44457;BME280;30159;49.316;8.558;2023-04-25T08:48:27;99982.38;;;11.22;96.47
44457;BME280;30159;49.316;8.558;2023-04-25T08:50:55;99966.56;;;10.77;95.01
44457;BME280;30159;49.316;8.558;2023-04-25T08:53:27;99985.97;;;10.55;97.57
44457;BME280;30159;49.316;8.558;2023-04-25T08:55:54;99975.81;;;10.71;96.68
44457;BME280;30159;49.316;8.558;2023-04-25T08:58:21;99976.03;;;10.93;94.42
44457;BME280;30159;49.316;8.558;2023-04-25T09:00:49;99993.47;;;11.01;90.26
44457;BME280;30159;49.316;8.558;2023-04-25T09:03:15;99997.91;;;10.92;91.99
44457;BME280;30159;49.316;8.558;2023-04-25T09:05:44;99982.00;;;10.90;93.69
44457;BME280;30159;49.316;8.558;2023-04-25T09:08:11;100002.19;;;11.31;91.79
44457;BME280;30159;49.316;8.558;2023-04-25T09:10:37;100000.88;;;11.09;91.42
44457;BME280;30159;49.316;8.558;2023-04-25T09:13:05;99995.13;;;10.97;90.98
44457;BME280;30159;49.316;8.558;2023-04-25T09:15:46;99838.09;;;9.81;95.25
44457;BME280;30159;49.316;8.558;2023-04-25T09:18:13;100002.63;;;11.38;97.65
44457;BME280;30159;49.316;8.558;2023-04-25T09:20:41;99940.81;;;10.85;90.13
44457;BME280;30159;49.316;8.558;2023-04-25T09:23:10;99996.81;;;11.12;93.46
44457;BME280;30159;49.316;8.558;2023-04-25T09:25:37;100011.19;;;11.26;91.31
44457;BME280;30159;49.316;8.558;2023-04-25T09:28:06;100003.00;;;11.64;93.88
44457;BME280;30159;49.316;8.558;2023-04-25T09:30:33;100003.63;;;11.94;90.45
44457;BME280;30159;49.316;8.558;2023-04-25T09:33:04;100009.53;;;12.23;88.50
44457;BME280;30159;49.316;8.558;2023-04-25T09:35:35;99982.50;;;12.37;83.82
44457;BME280;30159;49.316;8.558;2023-04-25T09:38:07;100020.28;;;12.29;80.51
44457;BME280;30159;49.316;8.558;2023-04-25T09:40:39;100020.41;;;11.91;83.05
44457;BME280;30159;49.316;8.558;2023-04-25T09:43:09;100024.84;;;12.00;83.79
44457;BME280;30159;49.316;8.558;2023-04-25T09:45:41;100029.75;;;11.66;81.82
44457;BME280;30159;49.316;8.558;2023-04-25T09:48:11;100030.84;;;11.46;84.75
44457;BME280;30159;49.316;8.558;2023-04-25T09:50:38;100012.09;;;11.54;82.63
44457;BME280;30159;49.316;8.558;2023-04-25T09:53:05;100040.19;;;11.53;81.18
44457;BME280;30159;49.316;8.558;2023-04-25T09:58:05;100036.34;;;11.92;77.17
44457;BME280;30159;49.316;8.558;2023-04-25T10:00:33;100015.25;;;12.08;75.93
44457;BME280;30159;49.316;8.558;2023-04-25T10:03:01;100042.09;;;12.46;75.26
44457;BME280;30159;49.316;8.558;2023-04-25T10:05:30;100033.66;;;12.06;73.70
44457;BME280;30159;49.316;8.558;2023-04-25T10:07:59;100044.78;;;12.18;76.58
44457;BME280;30159;49.316;8.558;2023-04-25T10:10:26;100043.59;;;12.25;75.55
44457;BME280;30159;49.316;8.558;2023-04-25T10:12:53;100053.09;;;12.08;77.40
44457;BME280;30159;49.316;8.558;2023-04-25T10:15:22;100048.72;;;12.26;79.26
44457;BME280;30159;49.316;8.558;2023-04-25T10:17:49;100054.72;;;12.51;78.81
44457;BME280;30159;49.316;8.558;2023-04-25T10:20:16;100045.31;;;12.34;81.19
44457;BME280;30159;49.316;8.558;2023-04-25T10:22:44;100051.91;;;12.83;84.10
44457;BME280;30159;49.316;8.558;2023-04-25T10:25:14;100077.66;;;12.81;77.19
44457;BME280;30159;49.316;8.558;2023-04-25T10:27:41;100058.56;;;12.63;80.72
44457;BME280;30159;49.316;8.558;2023-04-25T10:30:09;99939.97;;;11.55;76.73
44457;BME280;30159;49.316;8.558;2023-04-25T10:32:39;100059.47;;;11.98;77.31
44457;BME280;30159;49.316;8.558;2023-04-25T10:35:13;100066.25;;;12.42;77.13
44457;BME280;30159;49.316;8.558;2023-04-25T10:37:57;100075.34;;;12.47;76.30
44457;BME280;30159;49.316;8.558;2023-04-25T10:40:24;100071.16;;;12.40;76.03
44457;BME280;30159;49.316;8.558;2023-04-25T10:42:51;100069.00;;;12.10;76.33
44457;BME280;30159;49.316;8.558;2023-04-25T10:45:18;100081.25;;;11.88;79.02
44457;BME280;30159;49.316;8.558;2023-04-25T10:47:47;100084.81;;;11.84;79.41
44457;BME280;30159;49.316;8.558;2023-04-25T10:50:14;100078.09;;;11.81;77.46
44457;BME280;30159;49.316;8.558;2023-04-25T10:52:41;100033.66;;;11.41;77.20
44457;BME280;30159;49.316;8.558;2023-04-25T10:55:08;100077.72;;;12.07;72.93
44457;BME280;30159;49.316;8.558;2023-04-25T10:57:40;100067.13;;;12.24;70.48
44457;BME280;30159;49.316;8.558;2023-04-25T11:00:10;100081.88;;;12.46;72.13
44457;BME280;30159;49.316;8.558;2023-04-25T11:02:38;100086.78;;;12.85;69.29
44457;BME280;30159;49.316;8.558;2023-04-25T11:05:08;100081.38;;;12.71;69.35
44457;BME280;30159;49.316;8.558;2023-04-25T11:07:39;100087.81;;;13.25;74.54
44457;BME280;30159;49.316;8.558;2023-04-25T11:10:10;100089.84;;;13.34;69.35
44457;BME280;30159;49.316;8.558;2023-04-25T11:12:37;100093.59;;;12.96;70.13
44457;BME280;30159;49.316;8.558;2023-04-25T11:15:05;100088.13;;;13.38;71.79
44457;BME280;30159;49.316;8.558;2023-04-25T11:17:33;100087.31;;;13.37;70.98
44457;BME280;30159;49.316;8.558;2023-04-25T11:20:00;100087.88;;;12.70;70.82
44457;BME280;30159;49.316;8.558;2023-04-25T11:22:28;100097.63;;;12.57;75.98
44457;BME280;30159;49.316;8.558;2023-04-25T11:24:55;100093.22;;;12.75;74.99
44457;BME280;30159;49.316;8.558;2023-04-25T11:27:21;100101.81;;;12.91;72.14
44457;BME280;30159;49.316;8.558;2023-04-25T11:29:50;100102.81;;;12.81;73.60
44457;BME280;30159;49.316;8.558;2023-04-25T11:32:17;100098.03;;;12.78;72.61
44457;BME280;30159;49.316;8.558;2023-04-25T11:34:44;100095.88;;;13.03;76.45
44457;BME280;30159;49.316;8.558;2023-04-25T11:37:11;100091.47;;;13.07;74.37
44457;BME280;30159;49.316;8.558;2023-04-25T11:39:42;100094.91;;;13.49;74.11
44457;BME280;30159;49.316;8.558;2023-04-25T11:42:10;100096.59;;;14.04;74.36
44457;BME280;30159;49.316;8.558;2023-04-25T11:44:37;100102.38;;;14.82;74.30
44457;BME280;30159;49.316;8.558;2023-04-25T11:47:04;100098.38;;;14.40;66.75
44457;BME280;30159;49.316;8.558;2023-04-25T11:49:31;100098.88;;;13.65;67.10
44457;BME280;30159;49.316;8.558;2023-04-25T11:51:57;100099.72;;;13.75;66.82
44457;BME280;30159;49.316;8.558;2023-04-25T11:54:24;100108.91;;;13.65;67.14
44457;BME280;30159;49.316;8.558;2023-04-25T11:56:52;100115.19;;;13.24;68.26
44457;BME280;30159;49.316;8.558;2023-04-25T11:59:23;100109.63;;;13.06;67.90
44457;BME280;30159;49.316;8.558;2023-04-25T12:01:50;100118.47;;;12.71;67.75
44457;BME280;30159;49.316;8.558;2023-04-25T12:04:18;100111.34;;;12.47;68.53
44457;BME280;30159;49.316;8.558;2023-04-25T12:06:46;100129.88;;;12.54;69.12
44457;BME280;30159;49.316;8.558;2023-04-25T12:09:15;100115.66;;;12.62;70.03
44457;BME280;30159;49.316;8.558;2023-04-25T12:11:43;100054.91;;;12.13;70.13
44457;BME280;30159;49.316;8.558;2023-04-25T12:14:12;100100.78;;;12.18;71.43
44457;BME280;30159;49.316;8.558;2023-04-25T12:16:47;100127.47;;;12.38;71.41
44457;BME280;30159;49.316;8.558;2023-04-25T12:19:14;100128.53;;;12.37;71.67
44457;BME280;30159;49.316;8.558;2023-04-25T12:21:42;100133.19;;;12.51;72.46
44457;BME280;30159;49.316;8.558;2023-04-25T12:24:13;100133.69;;;12.53;71.40
44457;BME280;30159;49.316;8.558;2023-04-25T12:26:47;100131.16;;;12.56;69.57
44457;BME280;30159;49.316;8.558;2023-04-25T12:29:23;100131.28;;;12.65;69.98
44457;BME280;30159;49.316;8.558;2023-04-25T12:31:51;100129.59;;;12.97;69.44
44457;BME280;30159;49.316;8.558;2023-04-25T12:34:17;100127.69;;;13.11;70.86
44457;BME280;30159;49.316;8.558;2023-04-25T12:36:44;100120.94;;;13.36;68.81
44457;BME280;30159;49.316;8.558;2023-04-25T12:39:17;100134.50;;;13.08;69.99
44457;BME280;30159;49.316;8.558;2023-04-25T12:41:44;100134.63;;;12.90;70.63
44457;BME280;30159;49.316;8.558;2023-04-25T12:44:11;100133.81;;;12.75;69.06
44457;BME280;30159;49.316;8.558;2023-04-25T12:46:40;100153.34;;;12.72;70.19
44457;BME280;30159;49.316;8.558;2023-04-25T12:49:07;100128.97;;;12.72;70.07
44457;BME280;30159;49.316;8.558;2023-04-25T12:51:34;100131.91;;;12.90;69.84
44457;BME280;30159;49.316;8.558;2023-04-25T12:54:02;100134.28;;;13.33;72.99
44457;BME280;30159;49.316;8.558;2023-04-25T12:56:29;100130.66;;;13.37;68.76
44457;BME280;30159;49.316;8.558;2023-04-25T12:58:56;100137.16;;;13.50;71.23